Darstellungsparameter: Aktuell verwendete Einstellungen:
Skalierung der Graphiken ... ?
xyx+y,   Skalierungsfaktor:      Skalierung: Modus: x, Faktor: 1
Darstellungszeitraum ... ?
Vom - - bis: - -   Zeitraum: 25.04.2020 - 24.05.2020
Min/Max/Avg-Anzeige ... ?
Zeige MMA aktuell
Zeige MMA Monat
Zeige MMA alles
Zeige --A aktuell
Zeige --A Monat
Zeige --A alles
Keine MMA-Anzeige
MMA:
Keine MMA-Graphiken
MMA-Basis: 25.04.2020 - 24.05.2020
Quicknavigation für Darstellung... ?
Tage:      1T, 2T, 3T, 5T -1T -2T -3T -5T +1T +2T +3T +5T
Wochen: 1W, 2W, 3W -1W -2W -3W +1W +2W +3W
Monate: 1M, 3M, 6M -1M -3M -6M +1M +3M +6M
Jahre:    1J, 3J, 5J, 10J -1J -3J -5J -10J +1J +3J +5J +10J
Nutze für die Darstellung ... ?
Originaldaten oder ...
Mittelwerte Minima Maxima auf...
Stundenbasis Tagesbasis Wochenbasis
Monatsbasis Jahresbasis      Datenbasis: Mittelwerte auf Stundenbasis
Darstellen als:
Statistik (Auto) Statistik J:M      Darstellung:
Zur Graphik,    zurück zur Übersicht aller Sensoren.
 
Tabellarische Datenbersicht: ?
 
Sensor: Nr:Datum:Temp:Feuchte:Taupunkt:
Aussen-T/F 1 25-04-2020 00:00:00 12.88333 C 53.5833 % 3.7 C
2 25-04-2020 01:00:00 11.725 C 62.3333 % 4.77 C
3 25-04-2020 02:00:00 10.53333 C 68.0833 % 4.9 C
4 25-04-2020 03:00:00 10.20833 C 69.7500 % 4.94 C
5 25-04-2020 04:00:00 9.44167 C 72.4167 % 4.74 C
6 25-04-2020 05:00:00 8.28333 C 80.4167 % 5.12 C
7 25-04-2020 06:00:00 8.35833 C 82.2500 % 5.51 C
8 25-04-2020 07:00:00 8.49167 C 79.2500 % 5.11 C
9 25-04-2020 08:00:00 8.59167 C 76.9167 % 4.78 C
10 25-04-2020 09:00:00 9.025 C 73.0000 % 4.45 C
11 25-04-2020 10:00:00 9.625 C 69.4167 % 4.31 C
12 25-04-2020 11:00:00 10.43333 C 66.0000 % 4.36 C
13 25-04-2020 12:00:00 11.21667 C 62.7500 % 4.39 C
14 25-04-2020 13:00:00 12.575 C 58.4167 % 4.64 C
15 25-04-2020 14:00:00 13.925 C 54.2500 % 4.85 C
16 25-04-2020 15:00:00 15.71667 C 49.6667 % 5.24 C
17 25-04-2020 16:00:00 17.66667 C 43.9167 % 5.25 C
18 25-04-2020 17:00:00 19.04167 C 40.0833 % 5.18 C
19 25-04-2020 18:00:00 18.825 C 41.5000 % 5.48 C
20 25-04-2020 19:00:00 17.125 C 45.3333 % 5.21 C
21 25-04-2020 20:00:00 14.51667 C 52.7500 % 4.99 C
22 25-04-2020 21:00:00 11.65 C 61.6667 % 4.55 C
23 25-04-2020 22:00:00 10.49167 C 65.6667 % 4.35 C
24 25-04-2020 23:00:00 9.18333 C 71.4167 % 4.29 C
25 26-04-2020 00:00:00 7.45 C 78.2500 % 3.92 C
Sensor: Nr:Datum:Temp:Feuchte:Taupunkt:
Aussen-T/F 26 26-04-2020 01:00:00 6.125 C 83.4167 % 3.53 C
27 26-04-2020 02:00:00 5.325 C 86.4167 % 3.25 C
28 26-04-2020 03:00:00 4.76667 C 88.0833 % 2.97 C
29 26-04-2020 04:00:00 4.03333 C 89.7500 % 2.51 C
30 26-04-2020 05:00:00 3.475 C 91.3333 % 2.2 C
31 26-04-2020 06:00:00 2.925 C 92.3333 % 1.81 C
32 26-04-2020 07:00:00 3.09167 C 93.3333 % 2.12 C
33 26-04-2020 08:00:00 3.94167 C 94.2500 % 3.1 C
34 26-04-2020 09:00:00 5.61667 C 95.0000 % 4.88 C
35 26-04-2020 10:00:00 8.06667 C 90.6667 % 6.64 C
36 26-04-2020 11:00:00 12.21667 C 71.5000 % 7.22 C
37 26-04-2020 12:00:00 15.26667 C 53.2500 % 5.82 C
38 26-04-2020 13:00:00 16.9 C 45.5833 % 5.09 C
39 26-04-2020 14:00:00 17.8 C 44.3333 % 5.51 C
40 26-04-2020 15:00:00 19.10833 C 40.1667 % 5.26 C
41 26-04-2020 16:00:00 21.13333 C 34.8333 % 5.02 C
42 26-04-2020 17:00:00 22.33333 C 30.0833 % 3.97 C
43 26-04-2020 18:00:00 22.68333 C 27.1667 % 2.83 C
44 26-04-2020 19:00:00 21.1 C 30.6667 % 3.18 C
45 26-04-2020 20:00:00 17.01667 C 44.0833 % 4.71 C
46 26-04-2020 21:00:00 13.325 C 54.8333 % 4.44 C
47 26-04-2020 22:00:00 11.36667 C 65.5833 % 5.16 C
48 26-04-2020 23:00:00 9.58333 C 69.9167 % 4.37 C
49 27-04-2020 00:00:00 8.48333 C 73.9167 % 4.11 C
50 27-04-2020 01:00:00 7.49167 C 78.0833 % 3.93 C
Sensor: Nr:Datum:Temp:Feuchte:Taupunkt:
Aussen-T/F 51 27-04-2020 02:00:00 6.675 C 81.2500 % 3.7 C
52 27-04-2020 03:00:00 6.125 C 84.1667 % 3.66 C
53 27-04-2020 04:00:00 5.38333 C 86.0833 % 3.25 C
54 27-04-2020 05:00:00 4.51667 C 88.8333 % 2.84 C
55 27-04-2020 06:00:00 4.23333 C 90.7500 % 2.86 C
56 27-04-2020 07:00:00 4.48333 C 91.6667 % 3.25 C
57 27-04-2020 08:00:00 5.44167 C 92.0000 % 4.25 C
58 27-04-2020 09:00:00 6.91667 C 91.2500 % 5.59 C
59 27-04-2020 10:00:00 9.85 C 86.2500 % 7.66 C
60 27-04-2020 11:00:00 15.41667 C 59.0000 % 7.45 C
61 27-04-2020 12:00:00 18.025 C 48.3333 % 6.96 C
62 27-04-2020 13:00:00 19.6 C 41.0000 % 6 C
63 27-04-2020 14:00:00 20.8 C 38.9167 % 6.32 C
64 27-04-2020 15:00:00 22.41667 C 34.7500 % 6.11 C
65 27-04-2020 16:00:00 22.7 C 34.3333 % 6.19 C
66 27-04-2020 17:00:00 21.45833 C 39.0000 % 6.94 C
67 27-04-2020 18:00:00 22.59167 C 38.5000 % 7.76 C
68 27-04-2020 19:00:00 20.38333 C 48.0000 % 9.02 C
69 27-04-2020 20:00:00 16.55 C 58.6667 % 8.43 C
70 27-04-2020 21:00:00 14.55 C 65.9167 % 8.26 C
71 27-04-2020 22:00:00 13.2 C 71.2500 % 8.11 C
72 27-04-2020 23:00:00 12.11667 C 75.0000 % 7.82 C
73 28-04-2020 00:00:00 10.725 C 80.2500 % 7.47 C
74 28-04-2020 01:00:00 9.875 C 83.0833 % 7.14 C
75 28-04-2020 02:00:00 9.11667 C 85.9167 % 6.89 C
Sensor: Nr:Datum:Temp:Feuchte:Taupunkt:
Aussen-T/F 76 28-04-2020 03:00:00 8.80833 C 87.5000 % 6.85 C
77 28-04-2020 04:00:00 8.05 C 89.5833 % 6.44 C
78 28-04-2020 05:00:00 8.14167 C 90.9167 % 6.75 C
79 28-04-2020 06:00:00 7.875 C 91.3333 % 6.55 C
80 28-04-2020 07:00:00 8.86667 C 91.7500 % 7.6 C
81 28-04-2020 08:00:00 10.00833 C 91.6667 % 8.72 C
82 28-04-2020 09:00:00 11.13333 C 91.7500 % 9.84 C
83 28-04-2020 10:00:00 12.60833 C 90.2500 % 11.05 C
84 28-04-2020 11:00:00 14.01667 C 91.2500 % 12.61 C
85 28-04-2020 12:00:00 14.95833 C 92.6667 % 13.78 C
86 28-04-2020 13:00:00 15.05833 C 93.2500 % 13.98 C
87 28-04-2020 14:00:00 16.275 C 90.8333 % 14.78 C
88 28-04-2020 15:00:00 16.24167 C 87.9167 % 14.24 C
89 28-04-2020 16:00:00 16.81667 C 83.2500 % 13.96 C
90 28-04-2020 17:00:00 16.90833 C 78.2500 % 13.1 C
91 28-04-2020 18:00:00 17.675 C 72.8333 % 12.74 C
92 28-04-2020 19:00:00 16.925 C 74.7500 % 12.42 C
93 28-04-2020 20:00:00 14.95833 C 81.6667 % 11.85 C
94 28-04-2020 21:00:00 13.4 C 86.0833 % 11.12 C
95 28-04-2020 22:00:00 13.30833 C 86.5000 % 11.11 C
96 28-04-2020 23:00:00 12.88333 C 89.0833 % 11.13 C
97 29-04-2020 00:00:00 12.35833 C 90.0000 % 10.77 C
98 29-04-2020 01:00:00 11.95833 C 91.5833 % 10.63 C
99 29-04-2020 02:00:00 12.05833 C 90.3333 % 10.53 C
100 29-04-2020 03:00:00 12.025 C 88.0833 % 10.11 C
Sensor: Nr:Datum:Temp:Feuchte:Taupunkt:
Aussen-T/F 101 29-04-2020 04:00:00 12.00833 C 89.0000 % 10.25 C
102 29-04-2020 05:00:00 11.8 C 89.1667 % 10.08 C
103 29-04-2020 06:00:00 11.65833 C 89.5833 % 10.01 C
104 29-04-2020 07:00:00 12.03333 C 88.7500 % 10.24 C
105 29-04-2020 08:00:00 12.81667 C 84.4167 % 10.26 C
106 29-04-2020 09:00:00 13.40833 C 79.7500 % 9.99 C
107 29-04-2020 10:00:00 14.65 C 72.5833 % 9.78 C
108 29-04-2020 11:00:00 15.75833 C 67.5000 % 9.76 C
109 29-04-2020 12:00:00 16 C 64.5833 % 9.33 C
110 29-04-2020 13:00:00 16.225 C 65.0833 % 9.66 C
111 29-04-2020 14:00:00 15.96667 C 67.9167 % 10.05 C
112 29-04-2020 15:00:00 17.4 C 63.5000 % 10.41 C
113 29-04-2020 16:00:00 17.14167 C 63.5833 % 10.18 C
114 29-04-2020 17:00:00 17.875 C 63.4167 % 10.84 C
115 29-04-2020 18:00:00 17.85833 C 60.5833 % 10.14 C
116 29-04-2020 19:00:00 17.35 C 63.5000 % 10.36 C
117 29-04-2020 20:00:00 15.3 C 69.7500 % 9.81 C
118 29-04-2020 21:00:00 13.6 C 76.9167 % 9.63 C
119 29-04-2020 22:00:00 13.275 C 79.5833 % 9.82 C
120 29-04-2020 23:00:00 13.15 C 81.7500 % 10.1 C
121 30-04-2020 00:00:00 13.225 C 81.0833 % 10.05 C
122 30-04-2020 01:00:00 13.43333 C 79.1667 % 9.9 C
123 30-04-2020 02:00:00 12.70833 C 83.7500 % 10.03 C
124 30-04-2020 03:00:00 12.00833 C 85.0833 % 9.58 C
125 30-04-2020 04:00:00 11.49167 C 90.2500 % 9.95 C
Sensor: Nr:Datum:Temp:Feuchte:Taupunkt:
Aussen-T/F 126 30-04-2020 05:00:00 11.29167 C 93.4167 % 10.27 C
127 30-04-2020 06:00:00 11.2 C 94.1667 % 10.3 C
128 30-04-2020 07:00:00 10.71667 C 94.0833 % 9.8 C
129 30-04-2020 08:00:00 10.475 C 93.8333 % 9.53 C
130 30-04-2020 09:00:00 11.65833 C 90.5000 % 10.16 C
131 30-04-2020 10:00:00 13.16667 C 82.1667 % 10.2 C
132 30-04-2020 11:00:00 13.85833 C 77.3333 % 9.96 C
133 30-04-2020 12:00:00 13.925 C 72.0833 % 8.98 C
134 30-04-2020 13:00:00 14.075 C 66.8333 % 8.01 C
135 30-04-2020 14:00:00 15.525 C 60.8333 % 8 C
136 30-04-2020 15:00:00 15.88333 C 59.0000 % 7.89 C
137 30-04-2020 16:00:00 15.61667 C 61.9167 % 8.35 C
138 30-04-2020 17:00:00 13.375 C 78.3333 % 9.69 C
139 30-04-2020 18:00:00 10.88333 C 90.5000 % 9.39 C
140 30-04-2020 19:00:00 10.65833 C 91.4167 % 9.32 C
141 30-04-2020 20:00:00 10.375 C 91.0833 % 8.98 C
142 30-04-2020 21:00:00 9.425 C 93.3333 % 8.4 C
143 30-04-2020 22:00:00 9.23333 C 94.5000 % 8.4 C
144 30-04-2020 23:00:00 8.98333 C 95.2500 % 8.27 C
145 01-05-2020 00:00:00 8.93333 C 95.0000 % 8.18 C
146 01-05-2020 01:00:00 8.325 C 94.8333 % 7.55 C
147 01-05-2020 02:00:00 8.15833 C 94.0000 % 7.25 C
148 01-05-2020 03:00:00 8.075 C 94.4167 % 7.23 C
149 01-05-2020 04:00:00 7.825 C 94.5000 % 7 C
150 01-05-2020 05:00:00 8.525 C 95.5833 % 7.86 C
Sensor: Nr:Datum:Temp:Feuchte:Taupunkt:
Aussen-T/F 151 01-05-2020 06:00:00 8.38333 C 93.5833 % 7.41 C
152 01-05-2020 07:00:00 8.05833 C 94.5833 % 7.24 C
153 01-05-2020 08:00:00 8.84167 C 94.5833 % 8.02 C
154 01-05-2020 09:00:00 9.925 C 93.9167 % 8.99 C
155 01-05-2020 10:00:00 10.80833 C 88.2500 % 8.94 C
156 01-05-2020 11:00:00 12.25 C 79.7500 % 8.86 C
157 01-05-2020 12:00:00 11.96667 C 82.1667 % 9.02 C
158 01-05-2020 13:00:00 11.11667 C 85.1667 % 8.72 C
159 01-05-2020 14:00:00 12.925 C 75.9167 % 8.78 C
160 01-05-2020 15:00:00 13.96667 C 70.2500 % 8.64 C
161 01-05-2020 16:00:00 14.46667 C 73.5833 % 9.81 C
162 01-05-2020 17:00:00 14.76667 C 71.5833 % 9.69 C
163 01-05-2020 18:00:00 13.45 C 80.0000 % 10.07 C
164 01-05-2020 19:00:00 12.66667 C 78.9167 % 9.11 C
165 01-05-2020 20:00:00 11.25833 C 81.1667 % 8.15 C
166 01-05-2020 21:00:00 10.26667 C 85.5833 % 7.96 C
167 01-05-2020 22:00:00 9.28333 C 88.6667 % 7.51 C
168 01-05-2020 23:00:00 9.6 C 88.6667 % 7.82 C
169 02-05-2020 00:00:00 9.41667 C 89.0000 % 7.7 C
170 02-05-2020 01:00:00 9.3 C 89.2500 % 7.62 C
171 02-05-2020 02:00:00 8.85833 C 90.5000 % 7.39 C
172 02-05-2020 03:00:00 9.33333 C 88.1667 % 7.48 C
173 02-05-2020 04:00:00 9.05833 C 88.8333 % 7.32 C
174 02-05-2020 05:00:00 8.96667 C 87.5000 % 7.01 C
175 02-05-2020 06:00:00 8.25833 C 87.7500 % 6.35 C
Sensor: Nr:Datum:Temp:Feuchte:Taupunkt:
Aussen-T/F 176 02-05-2020 07:00:00 8.49167 C 86.9167 % 6.44 C
177 02-05-2020 08:00:00 9.28333 C 85.0000 % 6.9 C
178 02-05-2020 09:00:00 10.19167 C 80.3333 % 6.96 C
179 02-05-2020 10:00:00 8.675 C 86.5000 % 6.55 C
180 02-05-2020 11:00:00 8.6 C 93.1667 % 7.56 C
181 02-05-2020 12:00:00 10.09167 C 86.3333 % 7.92 C
182 02-05-2020 13:00:00 11.49167 C 77.4167 % 7.68 C
183 02-05-2020 14:00:00 11.825 C 74.1667 % 7.38 C
184 02-05-2020 15:00:00 9.575 C 90.0833 % 8.03 C
185 02-05-2020 16:00:00 13.45 C 77.7500 % 9.65 C
186 02-05-2020 17:00:00 14.04167 C 72.6667 % 9.21 C
187 02-05-2020 18:00:00 13.38333 C 66.4167 % 7.26 C
188 02-05-2020 19:00:00 11.7 C 72.3333 % 6.89 C
189 02-05-2020 20:00:00 11.43333 C 74.7500 % 7.12 C
190 02-05-2020 21:00:00 8.71667 C 85.6667 % 6.45 C
191 02-05-2020 22:00:00 7.43333 C 89.7500 % 5.86 C
192 02-05-2020 23:00:00 6.875 C 91.9167 % 5.65 C
193 03-05-2020 00:00:00 6.375 C 92.6667 % 5.28 C
194 03-05-2020 01:00:00 5.60833 C 93.2500 % 4.61 C
195 03-05-2020 02:00:00 5.26667 C 94.0000 % 4.38 C
196 03-05-2020 03:00:00 4.81667 C 94.6667 % 4.04 C
197 03-05-2020 04:00:00 4.23333 C 94.8333 % 3.48 C
198 03-05-2020 05:00:00 3.53333 C 95.1667 % 2.83 C
199 03-05-2020 06:00:00 4.21667 C 96.0000 % 3.64 C
200 03-05-2020 07:00:00 4.5 C 96.0000 % 3.92 C
Sensor: Nr:Datum:Temp:Feuchte:Taupunkt:
Aussen-T/F 201 03-05-2020 08:00:00 4.94167 C 96.3333 % 4.41 C
202 03-05-2020 09:00:00 6.21667 C 97.0000 % 5.78 C
203 03-05-2020 10:00:00 8.56667 C 95.2500 % 7.85 C
204 03-05-2020 11:00:00 12.21667 C 78.5833 % 8.61 C
205 03-05-2020 12:00:00 14.23333 C 59.0000 % 6.34 C
206 03-05-2020 13:00:00 15.40833 C 50.5000 % 5.19 C
207 03-05-2020 14:00:00 16.23333 C 47.7500 % 5.15 C
208 03-05-2020 15:00:00 17.39167 C 46.0833 % 5.69 C
209 03-05-2020 16:00:00 17.38333 C 47.7500 % 6.2 C
210 03-05-2020 17:00:00 16.975 C 49.3333 % 6.3 C
211 03-05-2020 18:00:00 16.625 C 53.5000 % 7.15 C
212 03-05-2020 19:00:00 15.84167 C 64.5000 % 9.17 C
213 03-05-2020 20:00:00 13.48333 C 73.7500 % 8.9 C
214 03-05-2020 21:00:00 12.08333 C 78.0000 % 8.37 C
215 03-05-2020 22:00:00 11.75 C 79.7500 % 8.37 C
216 03-05-2020 23:00:00 11.46667 C 80.3333 % 8.2 C
217 04-05-2020 00:00:00 11.31667 C 81.3333 % 8.24 C
218 04-05-2020 01:00:00 11.075 C 81.5000 % 8.03 C
219 04-05-2020 02:00:00 11.025 C 83.0833 % 8.27 C
220 04-05-2020 03:00:00 10 C 83.9167 % 7.41 C
221 04-05-2020 04:00:00 9.28333 C 87.0833 % 7.25 C
222 04-05-2020 05:00:00 9.71667 C 88.0833 % 7.84 C
223 04-05-2020 06:00:00 9.875 C 89.0000 % 8.15 C
224 04-05-2020 07:00:00 10.49167 C 89.0833 % 8.77 C
225 04-05-2020 08:00:00 11.59167 C 90.2500 % 10.05 C
Sensor: Nr:Datum:Temp:Feuchte:Taupunkt:
Aussen-T/F 226 04-05-2020 09:00:00 11.86667 C 92.7500 % 10.73 C
227 04-05-2020 10:00:00 13.20833 C 90.1667 % 11.63 C
228 04-05-2020 11:00:00 13.23333 C 89.5833 % 11.56 C
229 04-05-2020 12:00:00 12.65 C 91.8333 % 11.36 C
230 04-05-2020 13:00:00 14.00833 C 85.8333 % 11.68 C
231 04-05-2020 14:00:00 14.725 C 81.0000 % 11.5 C
232 04-05-2020 15:00:00 14.33333 C 80.0000 % 10.93 C
233 04-05-2020 16:00:00 14.59167 C 74.1667 % 10.05 C
234 04-05-2020 17:00:00 14.3 C 72.1667 % 9.36 C
235 04-05-2020 18:00:00 14.05833 C 70.4167 % 8.76 C
236 04-05-2020 19:00:00 13.45 C 77.4167 % 9.58 C
237 04-05-2020 20:00:00 12.61667 C 81.9167 % 9.61 C
238 04-05-2020 21:00:00 10.54167 C 79.8333 % 7.21 C
239 04-05-2020 22:00:00 8.55 C 83.5833 % 5.93 C
240 04-05-2020 23:00:00 7.25833 C 87.1667 % 5.27 C
241 05-05-2020 00:00:00 6.40833 C 89.1667 % 4.76 C
242 05-05-2020 01:00:00 5.625 C 91.1667 % 4.3 C
243 05-05-2020 02:00:00 4.9 C 92.7500 % 3.83 C
244 05-05-2020 03:00:00 4.81667 C 93.9167 % 3.92 C
245 05-05-2020 04:00:00 4.51667 C 94.1667 % 3.66 C
246 05-05-2020 05:00:00 4.23333 C 95.0000 % 3.51 C
247 05-05-2020 06:00:00 4.39167 C 95.3333 % 3.71 C
248 05-05-2020 07:00:00 5.38333 C 96.0000 % 4.8 C
249 05-05-2020 08:00:00 6.54167 C 95.6667 % 5.9 C
250 05-05-2020 09:00:00 7.90833 C 88.5000 % 6.13 C
Sensor: Nr:Datum:Temp:Feuchte:Taupunkt:
Aussen-T/F 251 05-05-2020 10:00:00 9.675 C 76.8333 % 5.81 C
252 05-05-2020 11:00:00 11.85833 C 66.5833 % 5.85 C
253 05-05-2020 12:00:00 12.825 C 63.3333 % 6.04 C
254 05-05-2020 13:00:00 13.35833 C 60.0833 % 5.78 C
255 05-05-2020 14:00:00 14.09167 C 53.5833 % 4.82 C
256 05-05-2020 15:00:00 16.15 C 42.2500 % 3.33 C
257 05-05-2020 16:00:00 17.71667 C 35.8333 % 2.41 C
258 05-05-2020 17:00:00 18.20833 C 32.0833 % 1.3 C
259 05-05-2020 18:00:00 18.11667 C 30.1667 % 0.36 C
260 05-05-2020 19:00:00 17.075 C 31.0000 % -0.16 C
261 05-05-2020 20:00:00 15.075 C 37.7500 % 0.79 C
262 05-05-2020 21:00:00 11.24167 C 57.9167 % 3.27 C
263 05-05-2020 22:00:00 9.13333 C 65.2500 % 2.96 C
264 05-05-2020 23:00:00 8.15 C 67.6667 % 2.54 C
265 06-05-2020 00:00:00 7.225 C 71.5833 % 2.44 C
266 06-05-2020 01:00:00 5.90833 C 76.9167 % 2.18 C
267 06-05-2020 02:00:00 4.51667 C 82.5833 % 1.82 C
268 06-05-2020 03:00:00 3.55 C 85.9167 % 1.42 C
269 06-05-2020 04:00:00 3.01667 C 88.2500 % 1.27 C
270 06-05-2020 05:00:00 2.55833 C 90.0000 % 1.09 C
271 06-05-2020 06:00:00 2.1 C 91.5833 % 0.88 C
272 06-05-2020 07:00:00 2.43333 C 92.9167 % 1.41 C
273 06-05-2020 08:00:00 3.50833 C 94.0000 % 2.64 C
274 06-05-2020 09:00:00 5.75 C 92.4167 % 4.62 C
275 06-05-2020 10:00:00 9.43333 C 70.5833 % 4.36 C
Sensor: Nr:Datum:Temp:Feuchte:Taupunkt:
Aussen-T/F 276 06-05-2020 11:00:00 12.89167 C 43.1667 % 0.69 C
277 06-05-2020 12:00:00 13.75 C 39.2500 % 0.15 C
278 06-05-2020 13:00:00 14.6 C 39.7500 % 1.08 C
279 06-05-2020 14:00:00 15.80833 C 35.7500 % 0.69 C
280 06-05-2020 15:00:00 17.31667 C 32.6667 % 0.77 C
281 06-05-2020 16:00:00 18.90833 C 30.6667 % 1.28 C
282 06-05-2020 17:00:00 19.7 C 30.4167 % 1.85 C
283 06-05-2020 18:00:00 20.23333 C 30.0833 % 2.16 C
284 06-05-2020 19:00:00 19.125 C 33.0000 % 2.49 C
285 06-05-2020 20:00:00 16.2 C 49.9167 % 5.75 C
286 06-05-2020 21:00:00 12.05 C 61.6667 % 4.93 C
287 06-05-2020 22:00:00 9.7 C 71.0000 % 4.7 C
288 06-05-2020 23:00:00 8.04167 C 76.4167 % 4.15 C
289 07-05-2020 00:00:00 6.85833 C 80.2500 % 3.7 C
290 07-05-2020 01:00:00 6.425 C 82.3333 % 3.64 C
291 07-05-2020 02:00:00 5.54167 C 85.0000 % 3.23 C
292 07-05-2020 03:00:00 4.825 C 87.6667 % 2.96 C
293 07-05-2020 04:00:00 4.26667 C 89.2500 % 2.66 C
294 07-05-2020 05:00:00 3.675 C 90.8333 % 2.32 C
295 07-05-2020 06:00:00 3.4 C 92.0000 % 2.23 C
296 07-05-2020 07:00:00 3.575 C 93.0000 % 2.55 C
297 07-05-2020 08:00:00 4.40833 C 93.6667 % 3.48 C
298 07-05-2020 09:00:00 6.24167 C 93.7500 % 5.31 C
299 07-05-2020 10:00:00 9.14167 C 87.8333 % 7.23 C
300 07-05-2020 11:00:00 13.8 C 66.0833 % 7.58 C
Sensor: Nr:Datum:Temp:Feuchte:Taupunkt:
Aussen-T/F 301 07-05-2020 12:00:00 16.45 C 46.4167 % 4.94 C
302 07-05-2020 13:00:00 17.80833 C 45.6667 % 5.94 C
303 07-05-2020 14:00:00 19.06667 C 40.9167 % 5.49 C
304 07-05-2020 15:00:00 20.79167 C 37.0000 % 5.58 C
305 07-05-2020 16:00:00 22.85833 C 34.0833 % 6.22 C
306 07-05-2020 17:00:00 23.225 C 32.8333 % 6 C
307 07-05-2020 18:00:00 23.425 C 32.5833 % 6.06 C
308 07-05-2020 19:00:00 22.66667 C 39.1667 % 8.08 C
309 07-05-2020 20:00:00 18.3 C 52.5833 % 8.45 C
310 07-05-2020 21:00:00 15.26667 C 61.6667 % 7.96 C
311 07-05-2020 22:00:00 13.04167 C 70.5000 % 7.81 C
312 07-05-2020 23:00:00 11.76667 C 73.5833 % 7.21 C
313 08-05-2020 00:00:00 10.66667 C 76.2500 % 6.66 C
314 08-05-2020 01:00:00 9.825 C 80.1667 % 6.57 C
315 08-05-2020 02:00:00 9.275 C 82.5000 % 6.45 C
316 08-05-2020 03:00:00 8.275 C 85.6667 % 6.02 C
317 08-05-2020 04:00:00 7.61667 C 87.8333 % 5.73 C
318 08-05-2020 05:00:00 7.65 C 89.3333 % 6.01 C
319 08-05-2020 06:00:00 7.20833 C 90.0833 % 5.69 C
320 08-05-2020 07:00:00 7.275 C 91.9167 % 6.05 C
321 08-05-2020 08:00:00 8.43333 C 91.5833 % 7.14 C
322 08-05-2020 09:00:00 9.88333 C 89.9167 % 8.31 C
323 08-05-2020 10:00:00 12.45833 C 83.6667 % 9.77 C
324 08-05-2020 11:00:00 16.40833 C 67.5833 % 10.4 C
325 08-05-2020 12:00:00 19.05833 C 49.3333 % 8.21 C
Sensor: Nr:Datum:Temp:Feuchte:Taupunkt:
Aussen-T/F 326 08-05-2020 13:00:00 20.78333 C 42.0833 % 7.44 C
327 08-05-2020 14:00:00 22.25833 C 35.8333 % 6.42 C
328 08-05-2020 15:00:00 23.13333 C 33.8333 % 6.35 C
329 08-05-2020 16:00:00 24.94167 C 29.2500 % 5.82 C
330 08-05-2020 17:00:00 24.59167 C 32.4167 % 7 C
331 08-05-2020 18:00:00 24.575 C 32.2500 % 6.91 C
332 08-05-2020 19:00:00 23.51667 C 34.6667 % 7.04 C
333 08-05-2020 20:00:00 19.40833 C 51.0000 % 9.02 C
334 08-05-2020 21:00:00 16.575 C 59.5833 % 8.68 C
335 08-05-2020 22:00:00 14.98333 C 67.4167 % 9 C
336 08-05-2020 23:00:00 13.875 C 69.9167 % 8.48 C
337 09-05-2020 00:00:00 12.69167 C 72.7500 % 7.93 C
338 09-05-2020 01:00:00 11.875 C 76.6667 % 7.91 C
339 09-05-2020 02:00:00 11.85 C 79.4167 % 8.41 C
340 09-05-2020 03:00:00 11.29167 C 81.7500 % 8.29 C
341 09-05-2020 04:00:00 9.99167 C 83.2500 % 7.29 C
342 09-05-2020 05:00:00 9.425 C 86.2500 % 7.25 C
343 09-05-2020 06:00:00 9.925 C 87.6667 % 7.98 C
344 09-05-2020 07:00:00 11.175 C 85.5000 % 8.84 C
345 09-05-2020 08:00:00 12.55 C 81.1667 % 9.41 C
346 09-05-2020 09:00:00 14.8 C 74.5833 % 10.33 C
347 09-05-2020 10:00:00 16.65833 C 62.7500 % 9.53 C
348 09-05-2020 11:00:00 17.99167 C 57.6667 % 9.53 C
349 09-05-2020 12:00:00 19.55 C 54.0833 % 10.02 C
350 09-05-2020 13:00:00 20.79167 C 53.5000 % 11.01 C
Sensor: Nr:Datum:Temp:Feuchte:Taupunkt:
Aussen-T/F 351 09-05-2020 14:00:00 21.06667 C 55.5000 % 11.82 C
352 09-05-2020 15:00:00 20.23333 C 64.1667 % 13.25 C
353 09-05-2020 16:00:00 21.25 C 62.6667 % 13.84 C
354 09-05-2020 17:00:00 21.28333 C 61.5833 % 13.61 C
355 09-05-2020 18:00:00 22.2 C 60.0833 % 14.09 C
356 09-05-2020 19:00:00 21.95833 C 58.9167 % 13.56 C
357 09-05-2020 20:00:00 20.21667 C 68.5000 % 14.24 C
358 09-05-2020 21:00:00 16.65 C 79.7500 % 13.14 C
359 09-05-2020 22:00:00 14.53333 C 86.1667 % 12.25 C
360 09-05-2020 23:00:00 13.41667 C 88.8333 % 11.61 C
361 10-05-2020 00:00:00 12.45 C 90.6667 % 10.97 C
362 10-05-2020 01:00:00 11.74167 C 91.3333 % 10.38 C
363 10-05-2020 02:00:00 11.34167 C 92.0000 % 10.09 C
364 10-05-2020 03:00:00 10.90833 C 93.3333 % 9.88 C
365 10-05-2020 04:00:00 10.8 C 94.0000 % 9.87 C
366 10-05-2020 05:00:00 10.9 C 94.9167 % 10.12 C
367 10-05-2020 06:00:00 11.10833 C 95.0000 % 10.34 C
368 10-05-2020 07:00:00 11.6 C 95.2500 % 10.87 C
369 10-05-2020 08:00:00 12.075 C 95.1667 % 11.33 C
370 10-05-2020 09:00:00 12.9 C 94.3333 % 12.01 C
371 10-05-2020 10:00:00 14.68333 C 91.1667 % 13.26 C
372 10-05-2020 11:00:00 17.80833 C 82.0000 % 14.7 C
373 10-05-2020 12:00:00 19.84167 C 75.2500 % 15.33 C
374 10-05-2020 13:00:00 21.11667 C 73.1667 % 16.12 C
375 10-05-2020 14:00:00 22.225 C 69.5833 % 16.4 C
Sensor: Nr:Datum:Temp:Feuchte:Taupunkt:
Aussen-T/F 376 10-05-2020 15:00:00 20.58333 C 72.3333 % 15.43 C
377 10-05-2020 16:00:00 19.69167 C 77.5000 % 15.65 C
378 10-05-2020 17:00:00 18.26667 C 83.0000 % 15.33 C
379 10-05-2020 18:00:00 18.63333 C 82.5833 % 15.61 C
380 10-05-2020 19:00:00 18.44167 C 85.1667 % 15.9 C
381 10-05-2020 20:00:00 17.7 C 87.5000 % 15.6 C
382 10-05-2020 21:00:00 16.78333 C 89.8333 % 15.11 C
383 10-05-2020 22:00:00 15.84167 C 91.6667 % 14.49 C
384 10-05-2020 23:00:00 15.61667 C 93.0000 % 14.49 C
385 11-05-2020 00:00:00 15.9 C 89.6667 % 14.21 C
386 11-05-2020 01:00:00 14.44167 C 85.1667 % 11.98 C
387 11-05-2020 02:00:00 12.51667 C 85.3333 % 10.12 C
388 11-05-2020 03:00:00 10.8 C 84.3333 % 8.27 C
389 11-05-2020 04:00:00 8.78333 C 89.7500 % 7.2 C
390 11-05-2020 05:00:00 7.41667 C 92.4167 % 6.27 C
391 11-05-2020 06:00:00 6.79167 C 93.0000 % 5.74 C
392 11-05-2020 07:00:00 6.19167 C 92.1667 % 5.02 C
393 11-05-2020 08:00:00 5.8 C 93.0833 % 4.77 C
394 11-05-2020 09:00:00 5.38333 C 88.2500 % 3.6 C
395 11-05-2020 10:00:00 5.68333 C 86.4167 % 3.6 C
396 11-05-2020 11:00:00 6.16667 C 81.5000 % 3.24 C
397 11-05-2020 12:00:00 6.775 C 78.7500 % 3.35 C
398 11-05-2020 13:00:00 7.65 C 72.3333 % 3 C
399 11-05-2020 14:00:00 8.975 C 63.3333 % 2.4 C
400 11-05-2020 15:00:00 11.125 C 56.2500 % 2.75 C
Sensor: Nr:Datum:Temp:Feuchte:Taupunkt:
Aussen-T/F 401 11-05-2020 16:00:00 12.23333 C 50.9167 % 2.38 C
402 11-05-2020 17:00:00 12.16667 C 48.5000 % 1.64 C
403 11-05-2020 18:00:00 11.63333 C 47.8333 % 0.96 C
404 11-05-2020 19:00:00 11.625 C 46.9167 % 0.68 C
405 11-05-2020 20:00:00 10.9 C 47.0000 % 0.05 C
406 11-05-2020 21:00:00 9.975 C 48.4167 % -0.39 C
407 11-05-2020 22:00:00 9.34167 C 55.5000 % 0.9 C
408 11-05-2020 23:00:00 7.56667 C 67.8333 % 2.02 C
409 12-05-2020 00:00:00 5.375 C 74.5000 % 1.22 C
410 12-05-2020 01:00:00 4.10833 C 77.9167 % 0.61 C
411 12-05-2020 02:00:00 4.15 C 75.7500 % 0.26 C
412 12-05-2020 03:00:00 2.98333 C 79.9167 % -0.13 C
413 12-05-2020 04:00:00 2.43333 C 81.8333 % -0.35 C
414 12-05-2020 05:00:00 2.01667 C 83.1667 % -0.53 C
415 12-05-2020 06:00:00 1.14167 C 87.0833 % -0.76 C
416 12-05-2020 07:00:00 1.29167 C 90.3333 % -0.11 C
417 12-05-2020 08:00:00 2.49167 C 90.5833 % 1.11 C
418 12-05-2020 09:00:00 4.41667 C 85.5833 % 2.22 C
419 12-05-2020 10:00:00 7.05 C 70.8333 % 2.13 C
420 12-05-2020 11:00:00 9.075 C 56.8333 % 0.98 C
421 12-05-2020 12:00:00 9.925 C 44.2500 % -1.66 C
422 12-05-2020 13:00:00 10.93333 C 41.2500 % -1.7 C
423 12-05-2020 14:00:00 12.06667 C 43.6667 % 0.1 C
424 12-05-2020 15:00:00 13.10833 C 43.5000 % 0.99 C
425 12-05-2020 16:00:00 14.075 C 42.1667 % 1.43 C
Sensor: Nr:Datum:Temp:Feuchte:Taupunkt:
Aussen-T/F 426 12-05-2020 17:00:00 14.19167 C 43.0000 % 1.81 C
427 12-05-2020 18:00:00 14.98333 C 41.8333 % 2.14 C
428 12-05-2020 19:00:00 13.53333 C 44.8333 % 1.79 C
429 12-05-2020 20:00:00 11.91667 C 53.5833 % 2.81 C
430 12-05-2020 21:00:00 8.88333 C 66.9167 % 3.08 C
431 12-05-2020 22:00:00 7.41667 C 69.7500 % 2.26 C
432 12-05-2020 23:00:00 6.675 C 72.9167 % 2.17 C
433 13-05-2020 00:00:00 5.56667 C 78.4167 % 2.12 C
434 13-05-2020 01:00:00 4.23333 C 82.7500 % 1.57 C
435 13-05-2020 02:00:00 3.325 C 85.1667 % 1.08 C
436 13-05-2020 03:00:00 2.66667 C 87.8333 % 0.86 C
437 13-05-2020 04:00:00 2.14167 C 89.8333 % 0.65 C
438 13-05-2020 05:00:00 2.05833 C 91.7500 % 0.86 C
439 13-05-2020 06:00:00 2.91667 C 92.0000 % 1.75 C
440 13-05-2020 07:00:00 3.74167 C 90.0000 % 2.26 C
441 13-05-2020 08:00:00 5.33333 C 84.6667 % 2.97 C
442 13-05-2020 09:00:00 6.41667 C 84.0833 % 3.93 C
443 13-05-2020 10:00:00 8.96667 C 68.4167 % 3.47 C
444 13-05-2020 11:00:00 11.75 C 56.2500 % 3.34 C
445 13-05-2020 12:00:00 13.05 C 50.0000 % 2.88 C
446 13-05-2020 13:00:00 13.64167 C 49.9167 % 3.4 C
447 13-05-2020 14:00:00 14.16667 C 47.8333 % 3.28 C
448 13-05-2020 15:00:00 14.65 C 46.0000 % 3.17 C
449 13-05-2020 16:00:00 14.875 C 44.6667 % 2.96 C
450 13-05-2020 17:00:00 14.58333 C 45.0833 % 2.83 C
Sensor: Nr:Datum:Temp:Feuchte:Taupunkt:
Aussen-T/F 451 13-05-2020 18:00:00 13.725 C 46.0000 % 2.33 C
452 13-05-2020 19:00:00 12.9 C 48.0000 % 2.17 C
453 13-05-2020 20:00:00 12.8 C 49.4167 % 2.48 C
454 13-05-2020 21:00:00 11.775 C 57.6667 % 3.71 C
455 13-05-2020 22:00:00 10.10833 C 70.3333 % 4.96 C
456 13-05-2020 23:00:00 8.83333 C 74.1667 % 4.49 C
457 14-05-2020 00:00:00 8.14167 C 76.0833 % 4.19 C
458 14-05-2020 01:00:00 7.41667 C 77.1667 % 3.69 C
459 14-05-2020 02:00:00 6.325 C 81.0833 % 3.33 C
460 14-05-2020 03:00:00 6.225 C 82.3333 % 3.44 C
461 14-05-2020 04:00:00 6.075 C 82.5000 % 3.33 C
462 14-05-2020 05:00:00 5.85833 C 83.0000 % 3.2 C
463 14-05-2020 06:00:00 5.05833 C 85.1667 % 2.78 C
464 14-05-2020 07:00:00 4.64167 C 88.8333 % 2.96 C
465 14-05-2020 08:00:00 6.58333 C 80.9167 % 3.55 C
466 14-05-2020 09:00:00 7.775 C 74.9167 % 3.61 C
467 14-05-2020 10:00:00 9.075 C 69.6667 % 3.84 C
468 14-05-2020 11:00:00 10.89167 C 62.7500 % 4.08 C
469 14-05-2020 12:00:00 12.19167 C 57.2500 % 4 C
470 14-05-2020 13:00:00 13.35 C 52.8333 % 3.94 C
471 14-05-2020 14:00:00 14.15 C 48.3333 % 3.41 C
472 14-05-2020 15:00:00 14.40833 C 47.0833 % 3.28 C
473 14-05-2020 16:00:00 14.88333 C 44.5833 % 2.94 C
474 14-05-2020 17:00:00 14.39167 C 46.2500 % 3.01 C
475 14-05-2020 18:00:00 14.85833 C 44.9167 % 3.02 C
Sensor: Nr:Datum:Temp:Feuchte:Taupunkt:
Aussen-T/F 476 14-05-2020 19:00:00 14.79167 C 44.9167 % 2.96 C
477 14-05-2020 20:00:00 11.91667 C 57.1667 % 3.72 C
478 14-05-2020 21:00:00 9.2 C 63.9167 % 2.74 C
479 14-05-2020 22:00:00 7.80833 C 68.0833 % 2.3 C
480 14-05-2020 23:00:00 7.11667 C 70.3333 % 2.09 C
481 15-05-2020 00:00:00 6.325 C 74.1667 % 2.07 C
482 15-05-2020 01:00:00 5.45 C 77.5833 % 1.85 C
483 15-05-2020 02:00:00 5.125 C 77.2500 % 1.48 C
484 15-05-2020 03:00:00 4.26667 C 80.2500 % 1.17 C
485 15-05-2020 04:00:00 3.48333 C 83.0000 % 0.88 C
486 15-05-2020 05:00:00 2.50833 C 86.5833 % 0.5 C
487 15-05-2020 06:00:00 2.15 C 89.5000 % 0.61 C
488 15-05-2020 07:00:00 3.15833 C 89.8333 % 1.66 C
489 15-05-2020 08:00:00 4.925 C 85.6667 % 2.73 C
490 15-05-2020 09:00:00 7.46667 C 75.4167 % 3.41 C
491 15-05-2020 10:00:00 10.51667 C 62.4167 % 3.65 C
492 15-05-2020 11:00:00 12.88333 C 53.0000 % 3.55 C
493 15-05-2020 12:00:00 14.1 C 45.0000 % 2.36 C
494 15-05-2020 13:00:00 14.91667 C 44.5833 % 2.97 C
495 15-05-2020 14:00:00 16.00833 C 42.9167 % 3.42 C
496 15-05-2020 15:00:00 17.775 C 38.1667 % 3.35 C
497 15-05-2020 16:00:00 18.525 C 35.5833 % 3.02 C
498 15-05-2020 17:00:00 18.55 C 33.6667 % 2.27 C
499 15-05-2020 18:00:00 18.05833 C 34.0833 % 2.01 C
500 15-05-2020 19:00:00 17.35833 C 34.0000 % 1.36 C
Sensor: Nr:Datum:Temp:Feuchte:Taupunkt:
Aussen-T/F 501 15-05-2020 20:00:00 15.7 C 38.5833 % 1.65 C
502 15-05-2020 21:00:00 12.11667 C 52.3333 % 2.66 C
503 15-05-2020 22:00:00 10.10833 C 61.8333 % 3.13 C
504 15-05-2020 23:00:00 8.90833 C 67.0833 % 3.14 C
505 16-05-2020 00:00:00 7.76667 C 70.0000 % 2.65 C
506 16-05-2020 01:00:00 6.21667 C 76.7500 % 2.45 C
507 16-05-2020 02:00:00 4.8 C 82.0000 % 1.99 C
508 16-05-2020 03:00:00 4 C 85.3333 % 1.77 C
509 16-05-2020 04:00:00 3.375 C 87.7500 % 1.54 C
510 16-05-2020 05:00:00 2.86667 C 89.6667 % 1.34 C
511 16-05-2020 06:00:00 2.6 C 91.0000 % 1.28 C
512 16-05-2020 07:00:00 2.98333 C 92.4167 % 1.88 C
513 16-05-2020 08:00:00 4.275 C 92.6667 % 3.2 C
514 16-05-2020 09:00:00 6.35 C 90.5000 % 4.91 C
515 16-05-2020 10:00:00 9.875 C 74.5833 % 5.58 C
516 16-05-2020 11:00:00 13.58333 C 52.5000 % 4.06 C
517 16-05-2020 12:00:00 14.65 C 47.8333 % 3.72 C
518 16-05-2020 13:00:00 15.65833 C 45.2500 % 3.85 C
519 16-05-2020 14:00:00 17.03333 C 41.3333 % 3.81 C
520 16-05-2020 15:00:00 18.6 C 35.8333 % 3.19 C
521 16-05-2020 16:00:00 19.85833 C 35.8333 % 4.3 C
522 16-05-2020 17:00:00 18.875 C 38.8333 % 4.57 C
523 16-05-2020 18:00:00 19.41667 C 37.8333 % 4.68 C
524 16-05-2020 19:00:00 18.58333 C 40.6667 % 4.97 C
525 16-05-2020 20:00:00 17.54167 C 44.8333 % 5.43 C
Sensor: Nr:Datum:Temp:Feuchte:Taupunkt:
Aussen-T/F 526 16-05-2020 21:00:00 14.28333 C 57.9167 % 6.12 C
527 16-05-2020 22:00:00 12.81667 C 62.3333 % 5.8 C
528 16-05-2020 23:00:00 12.16667 C 65.5000 % 5.9 C
529 17-05-2020 00:00:00 11.31667 C 69.4167 % 5.93 C
530 17-05-2020 01:00:00 9.85833 C 75.0833 % 5.66 C
531 17-05-2020 02:00:00 9.14167 C 77.4167 % 5.41 C
532 17-05-2020 03:00:00 8.625 C 81.0833 % 5.57 C
533 17-05-2020 04:00:00 8.25833 C 82.9167 % 5.53 C
534 17-05-2020 05:00:00 7.18333 C 86.4167 % 5.07 C
535 17-05-2020 06:00:00 6.70833 C 87.8333 % 4.84 C
536 17-05-2020 07:00:00 6.93333 C 88.6667 % 5.19 C
537 17-05-2020 08:00:00 7.49167 C 88.8333 % 5.77 C
538 17-05-2020 09:00:00 9.96667 C 78.1667 % 6.35 C
539 17-05-2020 10:00:00 12.21667 C 65.3333 % 5.91 C
540 17-05-2020 11:00:00 13.23333 C 61.0000 % 5.88 C
541 17-05-2020 12:00:00 14.25833 C 56.5000 % 5.74 C
542 17-05-2020 13:00:00 15.35833 C 52.3333 % 5.66 C
543 17-05-2020 14:00:00 16.85 C 47.1667 % 5.53 C
544 17-05-2020 15:00:00 18.625 C 41.3333 % 5.24 C
545 17-05-2020 16:00:00 20.13333 C 37.4167 % 5.16 C
546 17-05-2020 17:00:00 20.69167 C 34.6667 % 4.56 C
547 17-05-2020 18:00:00 20.95833 C 35.5833 % 5.17 C
548 17-05-2020 19:00:00 20.00833 C 37.5833 % 5.11 C
549 17-05-2020 20:00:00 18.46667 C 43.8333 % 5.95 C
550 17-05-2020 21:00:00 14.75833 C 57.1667 % 6.38 C
Sensor: Nr:Datum:Temp:Feuchte:Taupunkt:
Aussen-T/F 551 17-05-2020 22:00:00 12.99167 C 62.6667 % 6.05 C
552 17-05-2020 23:00:00 10.73333 C 72.5833 % 6.01 C
553 18-05-2020 00:00:00 9.35 C 77.7500 % 5.67 C
554 18-05-2020 01:00:00 8.54167 C 81.0000 % 5.47 C
555 18-05-2020 02:00:00 7.95 C 83.2500 % 5.29 C
556 18-05-2020 03:00:00 7.16667 C 86.0000 % 4.99 C
557 18-05-2020 04:00:00 6.60833 C 87.6667 % 4.71 C
558 18-05-2020 05:00:00 6.04167 C 89.2500 % 4.41 C
559 18-05-2020 06:00:00 5.925 C 90.8333 % 4.54 C
560 18-05-2020 07:00:00 6.7 C 92.0000 % 5.49 C
561 18-05-2020 08:00:00 8.125 C 92.0000 % 6.91 C
562 18-05-2020 09:00:00 10.525 C 87.5833 % 8.55 C
563 18-05-2020 10:00:00 13.975 C 74.6667 % 9.55 C
564 18-05-2020 11:00:00 18.925 C 50.6667 % 8.48 C
565 18-05-2020 12:00:00 20.225 C 47.0000 % 8.56 C
566 18-05-2020 13:00:00 21.45 C 43.0833 % 8.39 C
567 18-05-2020 14:00:00 22.80833 C 39.9167 % 8.48 C
568 18-05-2020 15:00:00 24.43333 C 37.1667 % 8.87 C
569 18-05-2020 16:00:00 25.59167 C 35.2500 % 9.11 C
570 18-05-2020 17:00:00 25.86667 C 35.7500 % 9.56 C
571 18-05-2020 18:00:00 26.05 C 37.8333 % 10.57 C
572 18-05-2020 19:00:00 24.85 C 42.0833 % 11.1 C
573 18-05-2020 20:00:00 22.89167 C 48.5000 % 11.46 C
574 18-05-2020 21:00:00 19.43333 C 59.1667 % 11.26 C
575 18-05-2020 22:00:00 17.025 C 67.1667 % 10.89 C
Sensor: Nr:Datum:Temp:Feuchte:Taupunkt:
Aussen-T/F 576 18-05-2020 23:00:00 15.69167 C 72.4167 % 10.75 C
577 19-05-2020 00:00:00 13.85833 C 77.5833 % 10.01 C
578 19-05-2020 01:00:00 12.08333 C 83.6667 % 9.41 C
579 19-05-2020 02:00:00 11.03333 C 85.0000 % 8.61 C
580 19-05-2020 03:00:00 9.825 C 87.8333 % 7.91 C
581 19-05-2020 04:00:00 8.89167 C 90.4167 % 7.41 C
582 19-05-2020 05:00:00 8.31667 C 90.5833 % 6.87 C
583 19-05-2020 06:00:00 8.125 C 91.4167 % 6.81 C
584 19-05-2020 07:00:00 8.35 C 92.0000 % 7.13 C
585 19-05-2020 08:00:00 9.29167 C 92.3333 % 8.11 C
586 19-05-2020 09:00:00 11.55833 C 88.0000 % 9.64 C
587 19-05-2020 10:00:00 15.025 C 67.8333 % 9.14 C
588 19-05-2020 11:00:00 19.51667 C 45.5000 % 7.44 C
589 19-05-2020 12:00:00 20.34167 C 40.4167 % 6.46 C
590 19-05-2020 13:00:00 21.75 C 37.4167 % 6.59 C
591 19-05-2020 14:00:00 23.225 C 36.9167 % 7.7 C
592 19-05-2020 15:00:00 24.11667 C 39.1667 % 9.37 C
593 19-05-2020 16:00:00 24.61667 C 40.2500 % 10.22 C
594 19-05-2020 17:00:00 25.26667 C 41.1667 % 11.14 C
595 19-05-2020 18:00:00 25.43333 C 41.5833 % 11.44 C
596 19-05-2020 19:00:00 24.35 C 45.5833 % 11.85 C
597 19-05-2020 20:00:00 21.79167 C 54.5000 % 12.22 C
598 19-05-2020 21:00:00 19.225 C 63.7500 % 12.19 C
599 19-05-2020 22:00:00 17 C 70.7500 % 11.65 C
600 19-05-2020 23:00:00 15.58333 C 76.8333 % 11.54 C
Sensor: Nr:Datum:Temp:Feuchte:Taupunkt:
Aussen-T/F 601 20-05-2020 00:00:00 14.90833 C 80.9167 % 11.66 C
602 20-05-2020 01:00:00 13.65833 C 83.8333 % 10.98 C
603 20-05-2020 02:00:00 12.825 C 86.7500 % 10.67 C
604 20-05-2020 03:00:00 12.25833 C 88.7500 % 10.46 C
605 20-05-2020 04:00:00 11.91667 C 90.3333 % 10.39 C
606 20-05-2020 05:00:00 11.3 C 91.2500 % 9.93 C
607 20-05-2020 06:00:00 11.45 C 92.1667 % 10.22 C
608 20-05-2020 07:00:00 11.975 C 92.9167 % 10.87 C
609 20-05-2020 08:00:00 14.78333 C 86.8333 % 12.61 C
610 20-05-2020 09:00:00 16.96667 C 77.9167 % 13.09 C
611 20-05-2020 10:00:00 18.60833 C 72.0000 % 13.46 C
612 20-05-2020 11:00:00 19.60833 C 68.0833 % 13.56 C
613 20-05-2020 12:00:00 20.25 C 65.7500 % 13.64 C
614 20-05-2020 13:00:00 21.15 C 61.8333 % 13.54 C
615 20-05-2020 14:00:00 21.89167 C 59.3333 % 13.61 C
616 20-05-2020 15:00:00 23.225 C 55.2500 % 13.76 C
617 20-05-2020 16:00:00 24.25 C 50.4167 % 13.3 C
618 20-05-2020 17:00:00 24.525 C 49.2500 % 13.19 C
619 20-05-2020 18:00:00 24.51667 C 48.4167 % 12.92 C
620 20-05-2020 19:00:00 23.55 C 51.0000 % 12.83 C
621 20-05-2020 20:00:00 21.93333 C 55.7500 % 12.69 C
622 20-05-2020 21:00:00 19.30833 C 64.6667 % 12.49 C
623 20-05-2020 22:00:00 16.49167 C 74.8333 % 12.02 C
624 20-05-2020 23:00:00 15.35 C 78.2500 % 11.59 C
625 21-05-2020 00:00:00 14.55 C 80.0000 % 11.14 C
Sensor: Nr:Datum:Temp:Feuchte:Taupunkt:
Aussen-T/F 626 21-05-2020 01:00:00 14.6 C 79.0000 % 11 C
627 21-05-2020 02:00:00 13.16667 C 84.0833 % 10.54 C
628 21-05-2020 03:00:00 12.43333 C 86.8333 % 10.3 C
629 21-05-2020 04:00:00 11.41667 C 89.0833 % 9.68 C
630 21-05-2020 05:00:00 10.575 C 91.4167 % 9.24 C
631 21-05-2020 06:00:00 10.25833 C 92.9167 % 9.16 C
632 21-05-2020 07:00:00 10.675 C 94.1667 % 9.78 C
633 21-05-2020 08:00:00 11.78333 C 95.0000 % 11.01 C
634 21-05-2020 09:00:00 13.89167 C 92.2500 % 12.66 C
635 21-05-2020 10:00:00 17.70833 C 77.8333 % 13.79 C
636 21-05-2020 11:00:00 21.23333 C 63.0000 % 13.91 C
637 21-05-2020 12:00:00 22.15833 C 58.5833 % 13.66 C
638 21-05-2020 13:00:00 23.24167 C 55.0833 % 13.72 C
639 21-05-2020 14:00:00 24.625 C 52.1667 % 14.17 C
640 21-05-2020 15:00:00 26.85833 C 45.6667 % 14.15 C
641 21-05-2020 16:00:00 28.06667 C 41.4167 % 13.74 C
642 21-05-2020 17:00:00 28.7 C 38.3333 % 13.11 C
643 21-05-2020 18:00:00 28.06667 C 38.9167 % 12.78 C
644 21-05-2020 19:00:00 28.08333 C 41.9167 % 13.94 C
645 21-05-2020 20:00:00 25.30833 C 53.6667 % 15.24 C
646 21-05-2020 21:00:00 21.2 C 65.0833 % 14.38 C
647 21-05-2020 22:00:00 19.1 C 72.4167 % 14.03 C
648 21-05-2020 23:00:00 18.675 C 73.2500 % 13.79 C
649 22-05-2020 00:00:00 17.55833 C 76.0000 % 13.28 C
650 22-05-2020 01:00:00 16.225 C 79.8333 % 12.74 C
Sensor: Nr:Datum:Temp:Feuchte:Taupunkt:
Aussen-T/F 651 22-05-2020 02:00:00 15.3 C 84.1667 % 12.64 C
652 22-05-2020 03:00:00 14.60833 C 85.9167 % 12.28 C
653 22-05-2020 04:00:00 13.58333 C 88.5833 % 11.74 C
654 22-05-2020 05:00:00 12.95 C 91.0833 % 11.53 C
655 22-05-2020 06:00:00 13.25 C 93.1667 % 12.17 C
656 22-05-2020 07:00:00 14.95 C 92.4167 % 13.73 C
657 22-05-2020 08:00:00 17.55833 C 83.5833 % 14.75 C
658 22-05-2020 09:00:00 19.91667 C 75.3333 % 15.42 C
659 22-05-2020 10:00:00 21.65 C 71.8333 % 16.35 C
660 22-05-2020 11:00:00 23.675 C 65.0000 % 16.71 C
661 22-05-2020 12:00:00 24.51667 C 60.9167 % 16.48 C
662 22-05-2020 13:00:00 25.15833 C 61.0833 % 17.13 C
663 22-05-2020 14:00:00 26.25833 C 57.5833 % 17.22 C
664 22-05-2020 15:00:00 26.36667 C 54.3333 % 16.41 C
665 22-05-2020 16:00:00 26.08333 C 55.4167 % 16.46 C
666 22-05-2020 17:00:00 26.23333 C 56.3333 % 16.85 C
667 22-05-2020 18:00:00 25.11667 C 62.5000 % 17.45 C
668 22-05-2020 19:00:00 24.275 C 64.0833 % 17.05 C
669 22-05-2020 20:00:00 21.25833 C 74.4167 % 16.53 C
670 22-05-2020 21:00:00 18.35 C 86.7500 % 16.1 C
671 22-05-2020 22:00:00 17.5 C 92.0833 % 16.2 C
672 22-05-2020 23:00:00 17.09167 C 93.6667 % 16.06 C
673 23-05-2020 00:00:00 16.7 C 94.6667 % 15.84 C
674 23-05-2020 01:00:00 16.125 C 94.3333 % 15.21 C
675 23-05-2020 02:00:00 14.2 C 93.9167 % 13.23 C
Sensor: Nr:Datum:Temp:Feuchte:Taupunkt:
Aussen-T/F 676 23-05-2020 03:00:00 13.65833 C 95.0000 % 12.87 C
677 23-05-2020 04:00:00 13.66667 C 95.7500 % 13 C
678 23-05-2020 05:00:00 12.01667 C 94.7500 % 11.2 C
679 23-05-2020 06:00:00 11.6 C 95.6667 % 10.93 C
680 23-05-2020 07:00:00 12.35 C 96.2500 % 11.77 C
681 23-05-2020 08:00:00 13.06667 C 96.0833 % 12.46 C
682 23-05-2020 09:00:00 12.975 C 95.0000 % 12.19 C
683 23-05-2020 10:00:00 12.5 C 91.3333 % 11.13 C
684 23-05-2020 11:00:00 11.89167 C 92.0000 % 10.63 C
685 23-05-2020 12:00:00 12.325 C 89.4167 % 10.64 C
686 23-05-2020 13:00:00 12.91667 C 87.5833 % 10.91 C
687 23-05-2020 14:00:00 13.71667 C 83.5000 % 10.97 C
688 23-05-2020 15:00:00 14.925 C 78.5000 % 11.22 C
689 23-05-2020 16:00:00 15.95833 C 72.3333 % 10.99 C
690 23-05-2020 17:00:00 15.81667 C 74.5833 % 11.31 C
691 23-05-2020 18:00:00 15.925 C 75.0833 % 11.52 C
692 23-05-2020 19:00:00 15.40833 C 75.7500 % 11.15 C
693 23-05-2020 20:00:00 14.66667 C 78.0833 % 10.89 C
694 23-05-2020 21:00:00 13.24167 C 81.2500 % 10.1 C
695 23-05-2020 22:00:00 11.91667 C 84.5833 % 9.4 C
696 23-05-2020 23:00:00 11.05 C 87.4167 % 9.04 C
697 24-05-2020 00:00:00 10.48333 C 89.0000 % 8.75 C
698 24-05-2020 01:00:00 10.13333 C 87.7500 % 8.2 C
699 24-05-2020 02:00:00 10.18333 C 82.7500 % 7.39 C
700 24-05-2020 03:00:00 10.46667 C 80.3333 % 7.23 C
Sensor: Nr:Datum:Temp:Feuchte:Taupunkt:
Aussen-T/F 701 24-05-2020 04:00:00 10.30833 C 79.3333 % 6.89 C
702 24-05-2020 05:00:00 10.21667 C 79.7500 % 6.88 C
703 24-05-2020 06:00:00 10.25833 C 81.2500 % 7.19 C
704 24-05-2020 07:00:00 10.3 C 82.0833 % 7.38 C
705 24-05-2020 08:00:00 11.14167 C 80.7500 % 7.96 C
706 24-05-2020 09:00:00 12.74167 C 76.8333 % 8.78 C
707 24-05-2020 10:00:00 14.41667 C 71.5833 % 9.35 C
708 24-05-2020 11:00:00 15.55 C 61.7500 % 8.25 C
709 24-05-2020 12:00:00 16.83333 C 56.0000 % 8.01 C
710 24-05-2020 13:00:00 17.54167 C 53.9167 % 8.11 C
711 24-05-2020 14:00:00 17.00833 C 56.3333 % 8.26 C
712 24-05-2020 15:00:00 16.89167 C 58.8333 % 8.79 C
713 24-05-2020 16:00:00 16.65833 C 62.4167 % 9.45 C
714 24-05-2020 17:00:00 16.64167 C 64.5833 % 9.94 C
715 24-05-2020 18:00:00 16.14167 C 70.5833 % 10.8 C
716 24-05-2020 19:00:00 14.50833 C 84.0000 % 11.84 C
717 24-05-2020 20:00:00 14.75 C 81.8333 % 11.68 C
718 24-05-2020 21:00:00 14.65833 C 81.0000 % 11.44 C
719 24-05-2020 22:00:00 14.13333 C 83.5000 % 11.38 C
720 24-05-2020 23:00:00 14.08333 C 83.7500 % 11.38 C

Maximal/Minimal-Werte vom 25.04.2020 - 24.05.2020

Sensor Min Max Avg
Temp
(Aussen-T/F)
0.9 °C
12-05-2020  06:55:00
29.2 °C
21-05-2020  17:15:00
12.83 °C
Feuchte
(Aussen-T/F)
25 %
08-05-2020  16:35:00
97 %
03-05-2020  08:40:00
72.18 %
Taupunkt
(Aussen-T/F)
-1.7 C
12-05-2020  13:00:00
17.45 C
22-05-2020  18:00:00
7.27 C

Die Daten stammen von einer Davis Vantage Pro 2 Wetter-Station und werden unter Linux mit der Software wview2wettercgi und aufbereitet. Alle Angaben erfolgen ohne Gewähr für ihre Vollständigkeit oder Richtigkeit.
Kontakt: Rainer Krienke krienke@uni-koblenz.de . Meine Webseiten an der Uni Koblenz oder privat.
Version: $Revision: 0.78 $